Wetterdaten: Woche 12.02.18 - 18.02.18 (KW7)
Datum Zeit Temp. A. Feuchte A. Luftdruck Regen Wind Richtung Taupunkt Windchill Windben
12.02.2018 00:00 2,3 C 80 % 1007,9 hPa 0,0 l/m 0,1 km/h N -0,7 C 2,3 C 2,8 km/h
12.02.2018 01:00 3,6 C 81 % 1008,3 hPa 0,0 l/m 1,6 km/h N 0,7 C 3,6 C 6,8 km/h
12.02.2018 02:00 3,8 C 81 % 1008,6 hPa 0,0 l/m 2,2 km/h N 0,8 C 3,8 C 10,1 km/h
12.02.2018 03:00 3,7 C 80 % 1008,8 hPa 0,0 l/m 0,2 km/h N 0,6 C 3,7 C 5,2 km/h
12.02.2018 04:00 3,8 C 81 % 1009,1 hPa 0,0 l/m 1,7 km/h N 0,8 C 3,8 C 6,8 km/h
12.02.2018 05:00 4,1 C 79 % 1009,4 hPa 0,0 l/m 6,2 km/h N 0,7 C 3,9 C 17,3 km/h
12.02.2018 06:00 4,1 C 77 % 1009,6 hPa 0,0 l/m 5,8 km/h N 0,3 C 4,1 C 16,9 km/h
12.02.2018 07:00 4,3 C 75 % 1010,2 hPa 0,0 l/m 5,1 km/h N 0,3 C 4,3 C 14,1 km/h
12.02.2018 08:00 4,3 C 77 % 1010,5 hPa 0,0 l/m 3,5 km/h N 0,5 C 4,3 C 9,6 km/h
12.02.2018 09:00 4,8 C 76 % 1010,9 hPa 0,0 l/m 3,7 km/h N 0,9 C 4,8 C 10,5 km/h
12.02.2018 10:00 4,8 C 75 % 1011,2 hPa 0,0 l/m 2,0 km/h N 0,8 C 4,8 C 8,8 km/h
12.02.2018 11:00 5,1 C 73 % 1011,6 hPa 0,0 l/m 3,0 km/h N 0,7 C 5,1 C 9,7 km/h
12.02.2018 12:00 5,1 C 73 % 1011,9 hPa 0,0 l/m 3,9 km/h N 0,6 C 5,1 C 13,3 km/h
12.02.2018 13:00 5,1 C 72 % 1012,0 hPa 0,0 l/m 5,0 km/h N 0,5 C 5,1 C 13,3 km/h
12.02.2018 14:00 5,4 C 71 % 1012,0 hPa 0,0 l/m 3,8 km/h N 0,5 C 5,4 C 11,3 km/h
12.02.2018 15:00 5,5 C 70 % 1012,2 hPa 0,0 l/m 3,2 km/h N 0,4 C 5,5 C 9,3 km/h
12.02.2018 16:00 4,8 C 72 % 1012,9 hPa 0,0 l/m 3,8 km/h N 0,2 C 4,8 C 17,3 km/h
12.02.2018 17:00 2,6 C 81 % 1013,8 hPa 0,3 l/m 8,3 km/h N -0,4 C 0,9 C 22,1 km/h
12.02.2018 18:00 2,2 C 83 % 1014,5 hPa 0,3 l/m 6,9 km/h N -0,4 C 1,5 C 19,3 km/h
12.02.2018 19:00 2,2 C 83 % 1015,0 hPa 0,0 l/m 6,6 km/h N -0,4 C 1,9 C 17,7 km/h
12.02.2018 20:00 2,3 C 81 % 1015,4 hPa 0,3 l/m 8,5 km/h N -0,6 C 0,4 C 22,1 km/h
12.02.2018 21:00 2,7 C 77 % 1015,6 hPa 0,0 l/m 7,7 km/h N -0,9 C 1,4 C 20,5 km/h
12.02.2018 22:00 2,3 C 78 % 1016,0 hPa 0,0 l/m 7,8 km/h N -1,2 C 0,9 C 19,3 km/h
12.02.2018 23:00 2,0 C 78 % 1016,5 hPa 0,0 l/m 7,7 km/h N -1,4 C 0,7 C 19,3 km/h
13.02.2018 00:00 1,6 C 79 % 1016,5 hPa 0,0 l/m 8,6 km/h N -1,7 C -0,5 C 22,5 km/h
13.02.2018 01:00 1,3 C 79 % 1016,7 hPa 0,0 l/m 8,9 km/h N -1,9 C -1,0 C 21,3 km/h
13.02.2018 02:00 1,3 C 79 % 1016,7 hPa 0,0 l/m 9,6 km/h N -1,9 C -1,7 C 20,9 km/h
13.02.2018 03:00 1,2 C 80 % 1016,6 hPa 0,0 l/m 10,1 km/h N -1,9 C -2,2 C 23,7 km/h
13.02.2018 04:00 1,0 C 80 % 1016,9 hPa 0,0 l/m 8,5 km/h N -2,1 C -1,1 C 20,5 km/h
13.02.2018 05:00 0,8 C 81 % 1016,9 hPa 0,0 l/m 8,3 km/h N -2,1 C -1,0 C 20,1 km/h
13.02.2018 06:00 0,6 C 82 % 1017,1 hPa 0,0 l/m 6,4 km/h N -2,1 C 0,2 C 16,5 km/h
13.02.2018 07:00 0,5 C 81 % 1017,3 hPa 0,0 l/m 6,7 km/h N -2,4 C -0,2 C 18,5 km/h
13.02.2018 08:00 0,8 C 81 % 1017,5 hPa 0,0 l/m 6,8 km/h N -2,2 C 0,0 C 20,5 km/h
13.02.2018 09:00 1,2 C 79 % 1017,5 hPa 0,0 l/m 8,1 km/h N -2,0 C -0,5 C 21,7 km/h
13.02.2018 10:00 1,8 C 78 % 1017,3 hPa 0,0 l/m 8,8 km/h N -1,6 C -0,5 C 20,9 km/h
13.02.2018 11:00 1,9 C 77 % 1016,9 hPa 0,0 l/m 7,5 km/h N -1,7 C 0,8 C 20,9 km/h
13.02.2018 12:00 2,0 C 76 % 1016,3 hPa 0,0 l/m 6,8 km/h N -1,9 C 1,6 C 18,5 km/h
13.02.2018 13:00 2,3 C 74 % 1015,5 hPa 0,0 l/m 7,3 km/h N -1,8 C 1,5 C 20,1 km/h
13.02.2018 14:00 1,7 C 78 % 1015,1 hPa 0,0 l/m 6,3 km/h N -1,8 C 1,2 C 19,7 km/h
13.02.2018 15:00 1,1 C 81 % 1014,8 hPa 0,0 l/m 5,7 km/h N -1,9 C 0,7 C 16,5 km/h
13.02.2018 16:00 0,9 C 83 % 1014,6 hPa 0,0 l/m 3,3 km/h N -1,7 C 0,9 C 9,7 km/h
13.02.2018 17:00 0,8 C 83 % 1014,6 hPa 0,0 l/m 3,6 km/h N -1,8 C 0,8 C 12,9 km/h
13.02.2018 18:00 0,4 C 84 % 1014,5 hPa 0,0 l/m 1,8 km/h N -2,0 C 0,4 C 7,6 km/h
13.02.2018 19:00 0,6 C 84 % 1014,4 hPa 0,0 l/m 2,9 km/h N -1,8 C 0,6 C 10,9 km/h
13.02.2018 20:00 0,4 C 84 % 1014,3 hPa 0,0 l/m 2,8 km/h N -1,9 C 0,4 C 9,7 km/h
13.02.2018 21:00 0,4 C 84 % 1013,9 hPa 0,0 l/m 1,8 km/h N -2,0 C 0,4 C 8,0 km/h
13.02.2018 22:00 0,4 C 84 % 1013,6 hPa 0,0 l/m 1,6 km/h N -2,0 C 0,4 C 8,4 km/h
13.02.2018 23:00 0,5 C 84 % 1013,4 hPa 0,0 l/m 2,2 km/h N -1,9 C 0,5 C 9,3 km/h
14.02.2018 00:00 0,6 C 84 % 1013,3 hPa 0,0 l/m 2,0 km/h N -1,8 C 0,6 C 8,9 km/h
14.02.2018 01:00 0,5 C 84 % 1013,2 hPa 0,0 l/m 1,7 km/h N -1,9 C 0,5 C 9,3 km/h
14.02.2018 02:00 0,4 C 84 % 1013,3 hPa 0,0 l/m 2,0 km/h N -2,0 C 0,4 C 9,3 km/h
14.02.2018 03:00 0,4 C 84 % 1013,3 hPa 0,0 l/m 1,5 km/h N -2,0 C 0,4 C 6,8 km/h
14.02.2018 04:00 0,3 C 84 % 1013,3 hPa 0,0 l/m 2,6 km/h N -2,1 C 0,3 C 9,7 km/h
14.02.2018 05:00 0,2 C 84 % 1013,6 hPa 0,0 l/m 2,9 km/h N -2,3 C 0,2 C 10,1 km/h
14.02.2018 06:00 0,2 C 83 % 1014,2 hPa 0,0 l/m 2,2 km/h N -2,3 C 0,2 C 9,1 km/h
14.02.2018 07:00 0,1 C 83 % 1014,8 hPa 0,0 l/m 4,4 km/h N -2,5 C 0,1 C 12,9 km/h
14.02.2018 08:00 0,1 C 81 % 1015,5 hPa 0,0 l/m 4,9 km/h N -2,7 C 0,1 C 14,9 km/h
14.02.2018 09:00 0,3 C 80 % 1015,9 hPa 0,0 l/m 5,8 km/h N -2,7 C 0,3 C 16,1 km/h
14.02.2018 10:00 1,1 C 78 % 1016,3 hPa 0,3 l/m 7,3 km/h N -2,4 C 0,2 C 19,7 km/h
14.02.2018 11:00 1,5 C 74 % 1016,4 hPa 0,0 l/m 8,3 km/h N -2,6 C -0,2 C 21,3 km/h
14.02.2018 12:00 2,3 C 71 % 1016,6 hPa 0,0 l/m 8,2 km/h N -2,5 C 0,6 C 20,5 km/h
14.02.2018 13:00 2,3 C 69 % 1016,8 hPa 0,0 l/m 7,4 km/h N -2,8 C 1,3 C 20,1 km/h
14.02.2018 14:00 2,0 C 72 % 1017,0 hPa 0,0 l/m 6,1 km/h N -2,6 C 1,7 C 19,3 km/h
14.02.2018 15:00 2,1 C 72 % 1017,3 hPa 0,0 l/m 6,1 km/h N -2,5 C 1,9 C 18,9 km/h
14.02.2018 16:00 2,1 C 71 % 1017,8 hPa 0,0 l/m 6,6 km/h N -2,6 C 1,7 C 19,3 km/h
14.02.2018 17:00 2,0 C 69 % 1018,3 hPa 0,0 l/m 5,8 km/h N -3,2 C 1,8 C 17,7 km/h
14.02.2018 18:00 1,7 C 72 % 1019,1 hPa 0,0 l/m 5,7 km/h N -2,8 C 1,5 C 18,1 km/h
14.02.2018 19:00 1,0 C 78 % 1019,6 hPa 0,0 l/m 4,1 km/h N -2,5 C 1,0 C 12,9 km/h
14.02.2018 20:00 0,9 C 77 % 1020,1 hPa 0,0 l/m 4,8 km/h N -2,7 C 0,9 C 15,3 km/h
14.02.2018 21:00 1,0 C 76 % 1020,6 hPa 0,0 l/m 4,3 km/h N -2,7 C 1,0 C 12,9 km/h
14.02.2018 22:00 0,9 C 76 % 1020,9 hPa 0,0 l/m 4,9 km/h N -2,8 C 0,9 C 13,3 km/h
14.02.2018 23:00 0,7 C 76 % 1021,0 hPa 0,0 l/m 5,0 km/h N -3,0 C 0,7 C 13,7 km/h
15.02.2018 00:00 0,3 C 77 % 1021,3 hPa 0,0 l/m 5,3 km/h N -3,3 C 0,3 C 16,9 km/h
15.02.2018 01:00 0,0 C 78 % 1021,3 hPa 0,0 l/m 4,0 km/h N -3,3 C 0,0 C 10,9 km/h
15.02.2018 02:00 -0,4 C 79 % 1021,4 hPa 0,0 l/m 3,0 km/h N -3,5 C -0,4 C 9,3 km/h
15.02.2018 03:00 -0,8 C 80 % 1021,4 hPa 0,0 l/m 0,9 km/h N -3,8 C -0,8 C 5,6 km/h
15.02.2018 04:00 -0,6 C 81 % 1021,8 hPa 0,0 l/m 3,3 km/h N -3,4 C -0,6 C 11,3 km/h
15.02.2018 05:00 -0,6 C 79 % 1022,0 hPa 0,0 l/m 0,9 km/h N -3,7 C -0,6 C 5,6 km/h
15.02.2018 06:00 -1,0 C 80 % 1022,5 hPa 0,0 l/m 1,5 km/h N -4,1 C -1,0 C 5,6 km/h
15.02.2018 07:00 -1,3 C 81 % 1022,8 hPa 0,0 l/m 1,1 km/h N -4,1 C -1,3 C 5,2 km/h
15.02.2018 08:00 -0,5 C 80 % 1023,0 hPa 0,0 l/m 2,9 km/h N -3,4 C -0,5 C 9,3 km/h
15.02.2018 09:00 0,6 C 75 % 1023,4 hPa 0,0 l/m 3,8 km/h N -3,3 C 0,6 C 9,7 km/h
15.02.2018 10:00 1,9 C 66 % 1023,6 hPa 0,0 l/m 1,8 km/h N -3,7 C 1,9 C 8,4 km/h
15.02.2018 11:00 2,6 C 62 % 1023,5 hPa 0,0 l/m 0,5 km/h N -4,0 C 2,6 C 4,0 km/h
15.02.2018 12:00 4,3 C 58 % 1022,9 hPa 0,0 l/m 0,9 km/h N -3,4 C 4,3 C 5,6 km/h
15.02.2018 13:00 4,6 C 56 % 1022,5 hPa 0,0 l/m 0,5 km/h N -3,4 C 4,6 C 5,2 km/h
15.02.2018 14:00 4,8 C 59 % 1022,3 hPa 0,0 l/m 0,2 km/h N -2,6 C 4,8 C 4,0 km/h
15.02.2018 15:00 4,4 C 59 % 1022,0 hPa 0,0 l/m 0,2 km/h N -3,0 C 4,4 C 4,4 km/h
15.02.2018 16:00 3,4 C 62 % 1022,1 hPa 0,0 l/m 0,1 km/h N -3,3 C 3,4 C 2,4 km/h
15.02.2018 17:00 2,1 C 65 % 1022,5 hPa 0,0 l/m 0,0 km/h N -3,9 C 2,1 C 1,2 km/h
15.02.2018 18:00 1,0 C 68 % 1022,9 hPa 0,0 l/m 0,0 km/h N -4,2 C 1,0 C 0,4 km/h
15.02.2018 19:00 0,0 C 72 % 1022,8 hPa 0,0 l/m 0,0 km/h N -4,4 C 0,0 C 0,0 km/h
15.02.2018 20:00 -0,3 C 75 % 1022,4 hPa 0,0 l/m 0,0 km/h N -4,1 C -0,3 C 0,0 km/h
15.02.2018 21:00 -0,5 C 78 % 1022,3 hPa 0,0 l/m 0,0 km/h N -3,9 C -0,5 C 0,0 km/h
15.02.2018 22:00 -0,6 C 79 % 1022,3 hPa 0,0 l/m 0,0 km/h N -3,8 C -0,6 C 0,0 km/h
15.02.2018 23:00 -0,3 C 80 % 1022,4 hPa 0,0 l/m 0,0 km/h N -3,3 C -0,3 C 0,4 km/h
16.02.2018 00:00 -0,3 C 80 % 1022,0 hPa 0,0 l/m 0,0 km/h N -3,2 C -0,3 C 0,4 km/h
16.02.2018 01:00 -0,3 C 81 % 1021,7 hPa 0,0 l/m 0,0 km/h N -3,1 C -0,3 C 0,0 km/h
16.02.2018 02:00 -0,4 C 81 % 1021,5 hPa 0,0 l/m 0,0 km/h N -3,2 C -0,4 C 0,0 km/h
16.02.2018 03:00 0,1 C 82 % 1020,9 hPa 0,0 l/m 0,0 km/h N -2,7 C 0,1 C 0,0 km/h
16.02.2018 04:00 0,4 C 82 % 1020,7 hPa 0,0 l/m 0,0 km/h N -2,3 C 0,4 C 0,4 km/h
16.02.2018 05:00 0,6 C 81 % 1020,9 hPa 0,0 l/m 0,0 km/h N -2,4 C 0,6 C 0,8 km/h
16.02.2018 06:00 0,6 C 81 % 1021,1 hPa 1,3 l/m 0,0 km/h N -2,3 C 0,6 C 0,0 km/h
16.02.2018 07:00 0,5 C 83 % 1022,2 hPa 1,6 l/m 0,1 km/h N -2,2 C 0,5 C 2,8 km/h
16.02.2018 08:00 0,6 C 84 % 1023,5 hPa 1,0 l/m 0,1 km/h N -1,8 C 0,6 C 1,2 km/h
16.02.2018 09:00 1,1 C 84 % 1024,1 hPa 0,0 l/m 0,4 km/h N -1,2 C 1,1 C 4,8 km/h
16.02.2018 10:00 2,0 C 83 % 1024,4 hPa 0,0 l/m 0,3 km/h N -0,6 C 2,0 C 4,8 km/h
16.02.2018 11:00 4,0 C 83 % 1024,9 hPa 0,0 l/m 0,4 km/h N 1,4 C 4,0 C 5,6 km/h
16.02.2018 12:00 4,7 C 83 % 1025,3 hPa 0,0 l/m 1,9 km/h N 2,1 C 4,7 C 10,5 km/h
16.02.2018 13:00 5,0 C 83 % 1025,4 hPa 0,0 l/m 4,4 km/h N 2,3 C 5,0 C 15,7 km/h
16.02.2018 14:00 5,6 C 82 % 1025,7 hPa 0,0 l/m 5,9 km/h N 2,7 C 5,4 C 19,7 km/h
16.02.2018 15:00 5,4 C 81 % 1026,1 hPa 0,0 l/m 5,7 km/h N 2,5 C 5,3 C 14,9 km/h
16.02.2018 16:00 4,9 C 82 % 1026,4 hPa 0,0 l/m 2,9 km/h N 2,0 C 4,9 C 10,9 km/h
16.02.2018 17:00 4,1 C 83 % 1026,9 hPa 0,0 l/m 0,6 km/h N 1,4 C 4,1 C 4,8 km/h
16.02.2018 18:00 3,9 C 83 % 1027,5 hPa 0,0 l/m 0,1 km/h N 1,3 C 3,9 C 1,6 km/h
16.02.2018 19:00 2,7 C 83 % 1028,1 hPa 0,0 l/m 0,0 km/h N 0,1 C 2,7 C 1,2 km/h
16.02.2018 20:00 1,8 C 83 % 1028,3 hPa 0,0 l/m 0,0 km/h N -0,8 C 1,8 C 0,0 km/h
16.02.2018 21:00 1,7 C 84 % 1028,4 hPa 0,0 l/m 0,0 km/h N -0,7 C 1,7 C 0,0 km/h
16.02.2018 22:00 1,6 C 84 % 1028,6 hPa 0,0 l/m 0,0 km/h N -0,8 C 1,6 C 0,0 km/h
16.02.2018 23:00 1,5 C 84 % 1028,6 hPa 0,0 l/m 0,0 km/h N -0,9 C 1,5 C 0,4 km/h
17.02.2018 00:00 1,4 C 84 % 1028,3 hPa 0,0 l/m 0,0 km/h N -1,0 C 1,4 C 0,4 km/h
17.02.2018 01:00 1,4 C 84 % 1028,1 hPa 0,0 l/m 0,0 km/h N -1,0 C 1,4 C 0,0 km/h
17.02.2018 02:00 1,4 C 84 % 1028,0 hPa 0,0 l/m 0,0 km/h N -1,0 C 1,4 C 0,0 km/h
17.02.2018 03:00 1,6 C 84 % 1027,5 hPa 0,0 l/m 0,0 km/h N -0,8 C 1,6 C 0,0 km/h
17.02.2018 04:00 1,5 C 84 % 1027,1 hPa 0,0 l/m 0,0 km/h N -0,9 C 1,5 C 0,0 km/h
17.02.2018 05:00 1,4 C 84 % 1026,4 hPa 0,0 l/m 0,0 km/h N -1,0 C 1,4 C 0,0 km/h
17.02.2018 06:00 1,0 C 84 % 1026,2 hPa 0,0 l/m 0,0 km/h N -1,4 C 1,0 C 1,2 km/h
17.02.2018 07:00 0,2 C 84 % 1025,8 hPa 0,0 l/m 0,0 km/h N -2,2 C 0,2 C 1,2 km/h
17.02.2018 08:00 0,1 C 84 % 1025,7 hPa 0,0 l/m 0,2 km/h N -2,3 C 0,1 C 4,0 km/h
17.02.2018 09:00 -0,0 C 84 % 1024,6 hPa 0,0 l/m 0,3 km/h N -2,4 C -0,0 C 4,4 km/h
17.02.2018 10:00 -0,3 C 84 % 1023,9 hPa 0,0 l/m 0,2 km/h N -2,6 C -0,3 C 9,7 km/h
17.02.2018 11:00 -0,2 C 84 % 1022,9 hPa 0,0 l/m 0,1 km/h N -2,5 C -0,2 C 3,6 km/h
17.02.2018 12:00 -0,5 C 84 % 1021,9 hPa 0,0 l/m 0,4 km/h N -2,9 C -0,5 C 5,2 km/h
17.02.2018 13:00 -0,4 C 84 % 1020,8 hPa 0,0 l/m 0,4 km/h N -2,7 C -0,4 C 4,8 km/h
17.02.2018 14:00 0,2 C 84 % 1019,9 hPa 0,0 l/m 0,1 km/h N -2,2 C 0,2 C 4,0 km/h
17.02.2018 15:00 0,5 C 84 % 1019,3 hPa 0,0 l/m 0,3 km/h N -1,9 C 0,5 C 3,2 km/h
17.02.2018 16:00 0,8 C 84 % 1019,0 hPa 0,0 l/m 0,5 km/h N -1,6 C 0,8 C 6,0 km/h
17.02.2018 17:00 0,9 C 84 % 1019,3 hPa 0,0 l/m 0,3 km/h N -1,5 C 0,9 C 3,6 km/h
17.02.2018 18:00 0,8 C 84 % 1019,3 hPa 0,0 l/m 0,2 km/h N -1,6 C 0,8 C 3,2 km/h
17.02.2018 19:00 0,8 C 84 % 1019,5 hPa 0,0 l/m 0,1 km/h N -1,6 C 0,8 C 3,2 km/h
17.02.2018 20:00 0,7 C 84 % 1019,3 hPa 0,0 l/m 0,1 km/h N -1,7 C 0,7 C 2,8 km/h
17.02.2018 21:00 0,4 C 84 % 1019,6 hPa 0,0 l/m 0,0 km/h N -2,0 C 0,4 C 3,2 km/h
17.02.2018 22:00 0,3 C 84 % 1020,2 hPa 0,0 l/m 0,1 km/h N -2,1 C 0,3 C 3,6 km/h
17.02.2018 23:00 0,3 C 84 % 1020,7 hPa 0,0 l/m 0,0 km/h N -2,1 C 0,3 C 0,4 km/h
18.02.2018 00:00 0,3 C 84 % 1021,6 hPa 0,3 l/m 0,0 km/h N -2,1 C 0,3 C 0,0 km/h
18.02.2018 01:00 0,3 C 84 % 1022,2 hPa 0,0 l/m 0,0 km/h N -2,1 C 0,3 C 0,4 km/h
18.02.2018 02:00 0,3 C 84 % 1022,6 hPa 0,0 l/m 0,0 km/h N -2,1 C 0,3 C 0,0 km/h
18.02.2018 03:00 0,4 C 84 % 1023,1 hPa 0,0 l/m 0,0 km/h N -2,0 C 0,4 C 2,0 km/h
18.02.2018 04:00 0,4 C 85 % 1023,5 hPa 0,0 l/m 0,0 km/h N -1,9 C 0,4 C 0,0 km/h
18.02.2018 05:00 0,4 C 85 % 1024,0 hPa 0,0 l/m 0,0 km/h N -1,8 C 0,4 C 1,6 km/h
18.02.2018 06:00 0,4 C 85 % 1024,8 hPa 0,0 l/m 1,1 km/h N -1,8 C 0,4 C 4,8 km/h
18.02.2018 07:00 0,4 C 85 % 1025,5 hPa 0,0 l/m 1,6 km/h N -1,8 C 0,4 C 6,0 km/h
18.02.2018 08:00 0,6 C 85 % 1026,1 hPa 0,0 l/m 3,6 km/h N -1,7 C 0,6 C 9,6 km/h
18.02.2018 09:00 1,1 C 85 % 1026,4 hPa 0,8 l/m 3,9 km/h N -1,2 C 1,1 C 11,7 km/h
18.02.2018 10:00 1,5 C 84 % 1026,7 hPa 1,6 l/m 6,3 km/h N -0,9 C 1,4 C 16,5 km/h
18.02.2018 11:00 2,1 C 84 % 1027,3 hPa 2,1 l/m 6,4 km/h N -0,3 C 1,9 C 16,9 km/h
18.02.2018 12:00 2,3 C 83 % 1027,4 hPa 1,6 l/m 5,9 km/h N -0,3 C 2,3 C 14,9 km/h
18.02.2018 13:00 2,4 C 81 % 1027,2 hPa 0,5 l/m 5,7 km/h N -0,5 C 2,4 C 14,5 km/h
18.02.2018 14:00 2,4 C 81 % 1027,3 hPa 0,5 l/m 4,8 km/h N -0,6 C 2,4 C 10,5 km/h
18.02.2018 15:00 2,2 C 81 % 1027,5 hPa 0,0 l/m 4,5 km/h N -0,7 C 2,2 C 12,1 km/h
18.02.2018 16:00 2,1 C 81 % 1027,6 hPa 0,0 l/m 3,6 km/h N -0,8 C 2,1 C 10,1 km/h
18.02.2018 17:00 1,9 C 81 % 1027,7 hPa 0,0 l/m 2,6 km/h N -1,0 C 1,9 C 7,6 km/h
18.02.2018 18:00 1,6 C 77 % 1028,0 hPa 0,0 l/m 1,4 km/h N -2,0 C 1,6 C 6,8 km/h
18.02.2018 19:00 1,5 C 76 % 1028,1 hPa 0,0 l/m 0,2 km/h N -2,4 C 1,5 C 2,8 km/h
18.02.2018 20:00 1,3 C 78 % 1028,0 hPa 0,0 l/m 0,2 km/h N -2,2 C 1,3 C 1,2 km/h
18.02.2018 21:00 0,9 C 78 % 1027,8 hPa 0,0 l/m 0,4 km/h N -2,5 C 0,9 C 3,2 km/h
18.02.2018 22:00 0,9 C 71 % 1027,5 hPa 0,0 l/m 1,1 km/h N -3,9 C 0,9 C 5,6 km/h
18.02.2018 23:00 0,4 C 71 % 1027,1 hPa 0,0 l/m 0,3 km/h N -4,3 C 0,4 C 2,8 km/h
Min-Datum _ 15.02.18 15.02.18 12.02.18 - 12.02.18 - 15.02.18 13.02.18 12.02.18
_ Min-Zeit 07:15 12:45 00:00 - 00:00 - 19:15 03:30 00:00
Minimum _ -1,3 C 55 % 1007,8 hPa - 0,0 km/h - -4,5 C -2,4 C 0,0 km/h
Max-Datum _ 16.02.18 18.02.18 16.02.18 18.02.18 13.02.18 - 16.02.18 16.02.18 12.02.18
_ Max-Zeit 14:30 04:15 22:45 11:15 02:00 - 14:30 14:30 21:00
Maximum _ 5,9 C 85 % 1028,7 hPa 2,1 l/m 10,6 km/h
N
- 2,8 C 5,8 C 27,4 km/h
N
Durchschnitt _ 1,5 C 79 % 1020,1 hPa #12,2 l/m 2,8 km/h N -1,7 C 1,3 C 9,1 km/h